createdAt,value
2019-03-05T00:02:12.588Z,2.77
2019-03-05T00:04:42.340Z,2.43
2019-03-05T00:07:11.985Z,2.47
2019-03-05T00:09:41.788Z,2.77
2019-03-05T00:12:11.763Z,2.23
2019-03-05T00:14:41.466Z,3.33
2019-03-05T00:17:11.126Z,2.40
2019-03-05T00:19:40.831Z,2.93
2019-03-05T00:22:10.957Z,2.50
2019-03-05T00:25:02.916Z,2.83
2019-03-05T00:27:34.800Z,2.60
2019-03-05T00:30:28.471Z,3.50
2019-03-05T00:33:09.968Z,2.60
2019-03-05T00:36:01.075Z,2.20
2019-03-05T00:38:54.659Z,2.30
2019-03-05T00:41:42.667Z,2.77
2019-03-05T00:44:24.408Z,2.80
2019-03-05T00:47:02.861Z,2.53
2019-03-05T00:50:10.394Z,2.10
2019-03-05T00:52:58.210Z,3.00
2019-03-05T00:55:46.349Z,2.37
2019-03-05T00:58:24.686Z,2.80
2019-03-05T01:01:09.355Z,2.40
2019-03-05T01:03:45.014Z,2.90
2019-03-05T01:06:16.785Z,2.10
2019-03-05T01:08:47.872Z,2.80
2019-03-05T01:11:18.736Z,1.90
2019-03-05T01:13:49.387Z,2.43
2019-03-05T01:16:20.887Z,2.17
2019-03-05T01:18:51.144Z,2.20
2019-03-05T01:21:21.398Z,2.00
2019-03-05T01:23:51.310Z,2.27
2019-03-05T01:26:21.086Z,1.93
2019-03-05T01:28:50.830Z,2.00
2019-03-05T01:31:25.091Z,2.03
2019-03-05T01:33:59.764Z,1.87
2019-03-05T01:36:31.178Z,2.10
2019-03-05T01:39:02.404Z,2.40
2019-03-05T01:41:32.177Z,2.40
2019-03-05T01:44:02.128Z,2.30
2019-03-05T01:46:31.805Z,2.27
2019-03-05T01:49:01.816Z,2.20
2019-03-05T01:51:31.465Z,2.47
2019-03-05T01:54:01.432Z,2.30
2019-03-05T01:56:31.562Z,3.57
2019-03-05T01:59:01.377Z,3.00
2019-03-05T02:01:31.237Z,3.63
2019-03-05T02:04:01.388Z,1.80
2019-03-05T02:06:32.936Z,2.80
2019-03-05T02:09:03.979Z,2.40
2019-03-05T02:11:33.836Z,3.30
2019-03-05T02:14:03.738Z,2.10
2019-03-05T02:16:35.028Z,2.80
2019-03-05T02:19:24.500Z,2.17
2019-03-05T02:21:54.525Z,2.63
2019-03-05T02:24:55.617Z,3.90
2019-03-05T02:27:31.428Z,2.00
2019-03-05T02:30:34.702Z,1.50
2019-03-05T02:33:32.368Z,2.23
2019-03-05T02:36:07.841Z,3.03
2019-03-05T02:38:55.613Z,1.80
2019-03-05T02:41:37.462Z,1.53
2019-03-05T02:44:28.136Z,2.50
2019-03-05T02:47:03.785Z,2.07
2019-03-05T02:49:45.044Z,2.03
2019-03-05T02:52:23.738Z,1.70
2019-03-05T02:54:56.498Z,3.77
2019-03-05T02:57:26.326Z,1.60
2019-03-05T02:59:55.921Z,1.40
2019-03-05T03:02:27.400Z,2.10
2019-03-05T03:05:04.687Z,1.40
2019-03-05T03:07:34.488Z,1.43
2019-03-05T03:10:15.856Z,1.53
2019-03-05T03:12:45.642Z,1.83
2019-03-05T03:15:15.838Z,0.97
2019-03-05T03:17:45.921Z,1.70
2019-03-05T03:20:16.605Z,1.70
2019-03-05T03:23:06.934Z,1.60
2019-03-05T03:25:36.904Z,2.10
2019-03-05T03:28:06.825Z,1.50
2019-03-05T03:30:36.457Z,2.37
2019-03-05T03:33:06.380Z,2.03
2019-03-05T03:35:36.246Z,2.70
2019-03-05T03:38:06.123Z,2.07
2019-03-05T03:40:36.052Z,1.80
2019-03-05T03:43:05.871Z,1.70
2019-03-05T03:45:35.584Z,1.80
2019-03-05T03:48:05.499Z,2.20
2019-03-05T03:50:35.245Z,1.70
2019-03-05T03:53:04.931Z,1.77
2019-03-05T03:55:34.903Z,2.03
2019-03-05T03:58:04.834Z,1.53
2019-03-05T04:00:34.640Z,1.93
2019-03-05T04:03:04.486Z,1.63
2019-03-05T04:05:34.314Z,1.57
2019-03-05T04:08:04.119Z,3.73
2019-03-05T04:10:33.922Z,2.80
2019-03-05T04:13:03.599Z,2.37
2019-03-05T04:15:33.613Z,2.13
2019-03-05T04:18:03.488Z,2.20
2019-03-05T04:20:33.907Z,2.63
2019-03-05T04:23:03.725Z,2.30
2019-03-05T04:25:33.826Z,2.87
2019-03-05T04:28:03.812Z,1.53
2019-03-05T04:30:33.725Z,2.80
2019-03-05T04:33:03.448Z,1.90
2019-03-05T04:35:52.454Z,2.60
2019-03-05T04:38:21.997Z,2.63
2019-03-05T04:40:51.669Z,3.00
2019-03-05T04:43:21.262Z,3.47
2019-03-05T04:46:08.879Z,2.57
2019-03-05T04:48:38.794Z,2.57
2019-03-05T04:51:12.587Z,2.47
2019-03-05T04:53:42.266Z,2.53
2019-03-05T04:56:11.813Z,2.70
2019-03-05T04:58:41.458Z,3.37
2019-03-05T05:01:11.124Z,2.30
2019-03-05T05:03:40.779Z,1.70
2019-03-05T05:06:10.463Z,2.57
2019-03-05T05:08:40.239Z,2.10
2019-03-05T05:11:09.886Z,2.80
2019-03-05T05:13:39.537Z,3.30
2019-03-05T05:16:09.321Z,2.83
2019-03-05T05:18:39.091Z,2.60
2019-03-05T05:21:08.686Z,2.23
2019-03-05T05:23:38.258Z,2.77
2019-03-05T05:26:07.867Z,2.90
2019-03-05T05:28:37.446Z,3.20
2019-03-05T05:31:07.150Z,3.40
2019-03-05T05:33:36.913Z,2.60
2019-03-05T05:36:06.730Z,2.27
2019-03-05T05:38:36.373Z,2.50
2019-03-05T05:41:06.264Z,2.70
2019-03-05T05:43:36.042Z,2.00
2019-03-05T05:46:05.675Z,1.63
2019-03-05T05:48:35.258Z,3.30
2019-03-05T05:51:05.051Z,3.27
2019-03-05T05:53:34.935Z,3.07
2019-03-05T05:56:04.613Z,2.37
2019-03-05T05:58:34.286Z,3.30
2019-03-05T06:01:05.555Z,3.70
2019-03-05T06:03:37.738Z,2.63
2019-03-05T06:06:06.524Z,2.97
2019-03-05T06:08:36.161Z,3.43
2019-03-05T06:11:08.259Z,3.47
2019-03-05T06:13:37.897Z,3.57
2019-03-05T06:16:07.550Z,6.20
2019-03-05T06:18:37.158Z,3.07
2019-03-05T06:21:06.934Z,2.53
2019-03-05T06:23:36.443Z,3.40
2019-03-05T06:26:08.545Z,3.80
2019-03-05T06:28:37.583Z,2.50
2019-03-05T06:31:07.342Z,4.13
2019-03-05T06:33:37.080Z,3.90
2019-03-05T06:36:06.813Z,3.50
2019-03-05T06:38:36.435Z,3.30
2019-03-05T06:41:06.097Z,5.73
2019-03-05T06:43:35.806Z,3.30
2019-03-05T06:46:05.457Z,2.87
2019-03-05T06:48:35.197Z,3.60
2019-03-05T06:51:04.931Z,4.67
2019-03-05T06:53:34.666Z,2.80
2019-03-05T06:56:07.536Z,4.00
2019-03-05T06:58:37.198Z,2.07
2019-03-05T07:01:07.379Z,3.87
2019-03-05T07:03:37.007Z,3.40
2019-03-05T07:06:47.651Z,3.43
2019-03-05T07:09:35.543Z,2.73
2019-03-05T07:12:19.756Z,2.97
2019-03-05T07:15:11.583Z,2.43
2019-03-05T07:17:52.822Z,3.20
2019-03-05T07:20:45.159Z,2.83
2019-03-05T07:23:29.427Z,2.67
2019-03-05T07:25:59.073Z,3.00
2019-03-05T07:28:28.914Z,2.57
2019-03-05T07:30:58.622Z,3.33
2019-03-05T07:33:28.376Z,3.50
2019-03-05T07:35:58.145Z,3.73
2019-03-05T07:38:27.826Z,3.27
2019-03-05T07:40:57.439Z,3.53
2019-03-05T07:43:36.198Z,2.90
2019-03-05T07:45:58.302Z,3.50
2019-03-05T07:48:29.655Z,3.10
2019-03-05T07:50:59.450Z,3.60
2019-03-05T07:53:29.236Z,2.73
2019-03-05T07:55:58.812Z,3.27
2019-03-05T07:58:28.446Z,3.80
2019-03-05T08:00:58.147Z,2.80
2019-03-05T08:03:27.859Z,2.43
2019-03-05T08:05:57.666Z,3.00
2019-03-05T08:09:05.492Z,3.10
2019-03-05T08:11:35.216Z,2.93
2019-03-05T08:14:37.962Z,3.27
2019-03-05T08:17:08.479Z,1.90
2019-03-05T08:19:38.127Z,3.77
2019-03-05T08:22:08.931Z,4.43
2019-03-05T08:24:38.626Z,4.00
2019-03-05T08:27:08.195Z,2.90
2019-03-05T08:29:37.953Z,3.27
2019-03-05T08:32:07.750Z,4.17
2019-03-05T08:34:37.358Z,3.70
2019-03-05T08:37:07.074Z,2.53
2019-03-05T08:39:36.799Z,2.67
2019-03-05T08:42:06.604Z,2.40
2019-03-05T08:44:36.333Z,3.17
2019-03-05T08:47:06.078Z,2.60
2019-03-05T08:49:35.666Z,3.00
2019-03-05T08:52:05.403Z,2.60
2019-03-05T08:54:35.011Z,3.60
2019-03-05T08:57:04.769Z,3.10
2019-03-05T08:59:34.615Z,3.20
2019-03-05T09:02:04.431Z,2.97
2019-03-05T09:04:34.214Z,3.73
2019-03-05T09:07:04.189Z,3.00
2019-03-05T09:09:33.753Z,3.70
2019-03-05T09:12:03.478Z,2.87
2019-03-05T09:14:34.538Z,2.93
2019-03-05T09:17:05.276Z,3.17
2019-03-05T09:19:34.933Z,3.40
2019-03-05T09:22:04.763Z,3.37
2019-03-05T09:24:34.360Z,3.47
2019-03-05T09:27:04.579Z,4.23
2019-03-05T09:29:34.369Z,3.07
2019-03-05T09:32:04.402Z,3.87
2019-03-05T09:34:34.045Z,3.53
2019-03-05T09:37:03.743Z,4.90
2019-03-05T09:39:33.584Z,5.00
2019-03-05T09:42:03.147Z,3.67
2019-03-05T09:44:32.872Z,5.67
2019-03-05T09:47:02.458Z,3.10
2019-03-05T09:49:32.151Z,3.80
2019-03-05T09:52:01.909Z,3.10
2019-03-05T09:54:31.646Z,4.10
2019-03-05T09:57:01.358Z,3.33
2019-03-05T09:59:31.044Z,4.10
2019-03-05T10:02:00.773Z,4.50
2019-03-05T10:04:30.664Z,4.30
2019-03-05T10:07:00.556Z,4.00
2019-03-05T10:09:30.323Z,2.90
2019-03-05T10:12:00.067Z,4.50
2019-03-05T10:14:29.653Z,4.90
2019-03-05T10:16:59.363Z,4.23
2019-03-05T10:19:29.187Z,3.73
2019-03-05T10:21:58.773Z,4.30
2019-03-05T10:24:28.491Z,3.80
2019-03-05T10:26:58.305Z,4.20
2019-03-05T10:29:27.890Z,4.63
2019-03-05T10:31:57.462Z,4.93
2019-03-05T10:34:29.468Z,5.00
2019-03-05T10:36:59.280Z,4.63
2019-03-05T10:39:30.996Z,5.17
2019-03-05T10:42:00.604Z,4.43
2019-03-05T10:44:30.324Z,4.60
2019-03-05T10:47:00.277Z,5.53
2019-03-05T10:49:38.702Z,5.67
2019-03-05T10:52:08.370Z,6.83
2019-03-05T10:54:37.925Z,5.83
2019-03-05T10:57:07.690Z,5.10
2019-03-05T10:59:37.423Z,5.07
2019-03-05T11:02:07.352Z,4.90
2019-03-05T11:04:56.239Z,4.77
2019-03-05T11:07:25.917Z,4.93
2019-03-05T11:09:55.608Z,5.40
2019-03-05T11:12:25.367Z,3.77
2019-03-05T11:14:55.085Z,4.60
2019-03-05T11:17:24.869Z,5.00
2019-03-05T11:19:54.559Z,4.67
2019-03-05T11:22:24.294Z,4.80
2019-03-05T11:24:53.935Z,4.70
2019-03-05T11:27:23.654Z,3.77
2019-03-05T11:29:53.377Z,5.33
2019-03-05T11:32:23.160Z,4.60
2019-03-05T11:34:52.879Z,4.03
2019-03-05T11:37:22.587Z,4.40
2019-03-05T11:39:52.259Z,3.40
2019-03-05T11:42:21.961Z,4.17
2019-03-05T11:45:03.776Z,5.90
2019-03-05T11:47:22.928Z,5.30
2019-03-05T11:49:52.653Z,5.20
2019-03-05T11:52:22.409Z,4.30
2019-03-05T11:54:52.094Z,4.70
2019-03-05T11:57:21.925Z,4.40
2019-03-05T11:59:51.712Z,3.90
2019-03-05T12:02:22.140Z,3.40
2019-03-05T12:04:52.049Z,3.37
2019-03-05T12:07:21.924Z,6.33
2019-03-05T12:09:51.900Z,3.57
2019-03-05T12:12:21.838Z,3.10
2019-03-05T12:14:51.482Z,3.97
2019-03-05T12:17:21.091Z,3.90
2019-03-05T12:19:50.707Z,4.00
2019-03-05T12:22:20.354Z,4.40
2019-03-05T12:24:49.954Z,4.70
2019-03-05T12:27:19.626Z,4.40
2019-03-05T12:29:49.350Z,4.70
2019-03-05T12:32:19.019Z,4.07
2019-03-05T12:34:48.699Z,4.83
2019-03-05T12:37:18.208Z,5.70
2019-03-05T12:39:47.966Z,3.90
2019-03-05T12:42:17.799Z,3.77
2019-03-05T12:44:47.541Z,3.60
2019-03-05T12:47:17.208Z,3.30
2019-03-05T12:49:46.902Z,3.20
2019-03-05T12:52:16.659Z,3.33
2019-03-05T12:54:46.438Z,3.50
2019-03-05T12:57:16.164Z,4.57
2019-03-05T12:59:46.095Z,3.97
2019-03-05T13:02:15.700Z,3.90
2019-03-05T13:04:45.407Z,3.40
2019-03-05T13:07:17.847Z,3.73
2019-03-05T13:09:47.051Z,3.43
2019-03-05T17:07:34.132Z,6.07
2019-03-05T17:10:07.422Z,3.77
2019-03-05T17:12:37.426Z,4.27
2019-03-05T17:15:09.319Z,3.50
2019-03-05T17:17:39.090Z,3.80
2019-03-05T17:20:11.238Z,3.90
2019-03-05T17:22:40.951Z,4.10
2019-03-05T17:25:19.419Z,3.87
2019-03-05T17:27:49.276Z,3.50
2019-03-05T17:30:19.330Z,4.23
2019-03-05T17:32:49.535Z,2.93
2019-03-05T17:35:19.343Z,3.07
2019-03-05T18:02:47.637Z,4.70
2019-03-05T18:05:18.989Z,4.47
2019-03-05T18:07:48.659Z,3.90
2019-03-05T18:10:18.474Z,3.20
2019-03-05T18:12:48.226Z,4.50
2019-03-05T18:15:18.444Z,6.17
2019-03-05T18:17:48.184Z,6.13
2019-03-05T18:20:24.678Z,5.60
2019-03-05T18:32:53.419Z,4.90
2019-03-05T18:35:23.272Z,4.60
2019-03-05T18:37:53.222Z,5.00
2019-03-05T18:40:24.178Z,5.20
2019-03-05T18:42:53.961Z,5.70
2019-03-05T18:45:28.859Z,5.63
2019-03-05T18:47:58.736Z,5.00
2019-03-05T18:50:28.754Z,4.90
2019-03-05T18:52:59.701Z,5.23
2019-03-05T18:55:29.915Z,4.47
2019-03-05T18:57:59.659Z,4.40
2019-03-05T19:00:30.750Z,4.73
2019-03-05T19:03:05.734Z,5.03
2019-03-05T19:05:35.473Z,4.00
2019-03-05T19:08:05.350Z,3.77
2019-03-05T19:10:35.009Z,4.37
2019-03-05T19:13:05.203Z,3.60
2019-03-05T19:15:35.217Z,3.70
2019-03-05T19:18:06.354Z,3.70
2019-03-05T19:20:36.161Z,4.40
2019-03-05T19:23:06.101Z,4.20
2019-03-05T19:25:38.571Z,4.60
2019-03-05T19:28:08.395Z,3.63
2019-03-05T19:30:43.160Z,3.43
2019-03-05T19:33:13.005Z,4.10
2019-03-05T19:35:42.690Z,3.90
2019-03-05T19:38:12.397Z,4.33
2019-03-05T19:40:43.551Z,4.10
2019-03-05T19:43:13.280Z,4.80
2019-03-05T19:45:43.196Z,4.20
2019-03-05T19:48:12.953Z,4.90
2019-03-05T19:50:42.779Z,4.70
2019-03-05T19:53:12.540Z,4.60
2019-03-05T19:55:42.424Z,4.87
2019-03-05T19:58:14.955Z,4.60
2019-03-05T20:01:03.084Z,3.57
2019-03-05T20:03:32.799Z,3.50
2019-03-05T20:06:02.779Z,3.90
2019-03-05T20:08:39.510Z,5.73
2019-03-05T20:11:04.105Z,5.23
2019-03-05T20:13:33.908Z,4.40
2019-03-05T20:16:04.148Z,4.23
2019-03-05T20:18:34.016Z,5.50
2019-03-05T20:21:03.835Z,4.80
2019-03-05T20:23:35.021Z,4.93
2019-03-05T20:26:05.106Z,4.37
2019-03-05T20:28:35.921Z,4.40
2019-03-05T20:31:05.834Z,5.77
2019-03-05T20:33:35.769Z,4.70
2019-03-05T20:36:05.578Z,4.90
2019-03-05T20:38:35.300Z,5.07
2019-03-05T20:41:05.275Z,5.83
2019-03-05T20:43:34.994Z,3.97
2019-03-05T20:46:07.846Z,4.70
2019-03-05T20:48:37.695Z,4.60
2019-03-05T20:51:07.434Z,5.10
2019-03-05T20:53:37.119Z,4.10
2019-03-05T20:56:06.925Z,3.80
2019-03-05T20:58:36.632Z,3.80
2019-03-05T21:01:07.965Z,4.57
2019-03-05T21:03:37.775Z,4.30
2019-03-05T21:06:07.591Z,5.20
2019-03-05T21:08:37.658Z,5.67
2019-03-05T21:11:09.563Z,5.03
2019-03-05T21:13:39.637Z,3.70
2019-03-05T21:16:09.428Z,5.60
2019-03-05T21:18:39.263Z,5.83
2019-03-05T21:21:09.079Z,4.80
2019-03-05T21:23:38.970Z,4.40
2019-03-05T21:26:08.758Z,4.23
2019-03-05T21:28:38.704Z,3.93
2019-03-05T21:31:08.719Z,3.40
2019-03-05T21:33:38.636Z,3.53
2019-03-05T21:36:08.576Z,3.80
2019-03-05T21:38:38.262Z,3.40
2019-03-05T21:41:07.967Z,5.07
2019-03-05T21:43:39.111Z,4.07
2019-03-05T21:46:12.304Z,4.20
2019-03-05T21:48:42.144Z,3.70
2019-03-05T21:51:11.964Z,3.10
2019-03-05T21:53:41.880Z,3.57
2019-03-05T21:56:11.546Z,4.57
2019-03-05T21:58:41.311Z,3.50
2019-03-05T22:01:11.152Z,3.60
2019-03-05T22:03:40.720Z,4.30
2019-03-05T22:06:10.527Z,3.63
2019-03-05T22:08:40.262Z,3.50
2019-03-05T22:11:10.099Z,4.43
2019-03-05T22:13:39.746Z,4.53
2019-03-05T22:16:09.606Z,3.93
2019-03-05T22:18:39.239Z,4.10
2019-03-05T22:21:08.992Z,2.97
2019-03-05T22:23:57.913Z,3.53
2019-03-05T22:26:27.645Z,2.90
2019-03-05T22:28:57.359Z,3.77
2019-03-05T22:31:27.067Z,3.30
2019-03-05T22:33:56.809Z,3.37
2019-03-05T22:36:26.450Z,2.97
2019-03-05T22:38:56.029Z,4.20
2019-03-05T22:41:25.742Z,3.20
2019-03-05T22:43:55.291Z,2.87
2019-03-05T22:46:24.960Z,2.80
2019-03-05T22:48:54.976Z,3.83
2019-03-05T22:51:24.695Z,3.60
2019-03-05T22:53:54.361Z,3.60
2019-03-05T22:56:23.935Z,3.40
2019-03-05T22:58:53.559Z,3.60
2019-03-05T23:01:26.430Z,3.23
2019-03-05T23:03:56.140Z,3.30
2019-03-05T23:06:26.139Z,4.00
2019-03-05T23:08:55.800Z,4.43
2019-03-05T23:11:25.605Z,3.80
2019-03-05T23:13:55.318Z,3.67
2019-03-05T23:16:25.028Z,4.30
2019-03-05T23:18:55.205Z,4.43
2019-03-05T23:21:24.761Z,3.67
2019-03-05T23:23:54.651Z,4.73
2019-03-05T23:26:24.316Z,3.73
2019-03-05T23:28:53.986Z,2.80
2019-03-05T23:31:29.916Z,3.40
2019-03-05T23:33:59.506Z,3.43
2019-03-05T23:36:29.131Z,3.50
2019-03-05T23:38:58.895Z,3.43
2019-03-05T23:41:28.691Z,3.60
2019-03-05T23:43:58.543Z,4.00
2019-03-05T23:46:28.478Z,3.83
2019-03-05T23:48:58.158Z,3.80
2019-03-05T23:51:27.765Z,4.53
2019-03-05T23:53:57.483Z,3.23
2019-03-05T23:56:27.200Z,4.07
2019-03-05T23:58:57.500Z,3.57
